sensor_id;sensor_type;location;lat;lon;timestamp;temperature;humidity
44229;DHT22;29904;51.058;5.378;2024-02-16T00:01:52;13.00;99.90
44229;DHT22;29904;51.058;5.378;2024-02-16T00:04:18;13.00;99.90
44229;DHT22;29904;51.058;5.378;2024-02-16T00:06:44;13.00;99.90
44229;DHT22;29904;51.058;5.378;2024-02-16T00:09:09;13.00;99.90
44229;DHT22;29904;51.058;5.378;2024-02-16T00:11:36;13.00;99.90
44229;DHT22;29904;51.058;5.378;2024-02-16T00:14:01;13.00;99.90
44229;DHT22;29904;51.058;5.378;2024-02-16T00:16:27;13.00;99.90
44229;DHT22;29904;51.058;5.378;2024-02-16T00:18:53;13.00;99.90
44229;DHT22;29904;51.058;5.378;2024-02-16T00:21:18;13.00;99.90
44229;DHT22;29904;51.058;5.378;2024-02-16T00:23:45;13.00;99.90
44229;DHT22;29904;51.058;5.378;2024-02-16T00:26:10;13.00;99.90
44229;DHT22;29904;51.058;5.378;2024-02-16T00:28:36;13.00;99.90
44229;DHT22;29904;51.058;5.378;2024-02-16T00:31:01;13.00;99.90
44229;DHT22;29904;51.058;5.378;2024-02-16T00:33:27;13.00;99.90
44229;DHT22;29904;51.058;5.378;2024-02-16T00:35:54;13.00;99.90
44229;DHT22;29904;51.058;5.378;2024-02-16T00:38:19;13.00;99.90
44229;DHT22;29904;51.058;5.378;2024-02-16T00:40:45;13.00;99.90
44229;DHT22;29904;51.058;5.378;2024-02-16T00:43:11;13.00;99.90
44229;DHT22;29904;51.058;5.378;2024-02-16T00:45:36;13.00;99.90
44229;DHT22;29904;51.058;5.378;2024-02-16T00:48:02;13.00;99.90
44229;DHT22;29904;51.058;5.378;2024-02-16T00:50:29;13.00;99.90
44229;DHT22;29904;51.058;5.378;2024-02-16T00:52:54;13.00;99.90
44229;DHT22;29904;51.058;5.378;2024-02-16T00:55:20;12.90;99.90
44229;DHT22;29904;51.058;5.378;2024-02-16T00:57:45;12.90;99.90
44229;DHT22;29904;51.058;5.378;2024-02-16T01:00:11;12.90;99.90
44229;DHT22;29904;51.058;5.378;2024-02-16T01:02:37;12.80;99.90
44229;DHT22;29904;51.058;5.378;2024-02-16T01:05:03;12.80;99.90
44229;DHT22;29904;51.058;5.378;2024-02-16T01:07:28;12.80;99.90
44229;DHT22;29904;51.058;5.378;2024-02-16T01:09:54;12.70;99.90
44229;DHT22;29904;51.058;5.378;2024-02-16T01:12:21;12.60;99.90
44229;DHT22;29904;51.058;5.378;2024-02-16T01:14:47;12.60;99.90
44229;DHT22;29904;51.058;5.378;2024-02-16T01:17:12;12.50;99.90
44229;DHT22;29904;51.058;5.378;2024-02-16T01:19:38;12.50;99.90
44229;DHT22;29904;51.058;5.378;2024-02-16T01:22:03;12.40;99.90
44229;DHT22;29904;51.058;5.378;2024-02-16T01:24:29;12.40;99.90
44229;DHT22;29904;51.058;5.378;2024-02-16T01:26:54;12.40;99.90
44229;DHT22;29904;51.058;5.378;2024-02-16T01:29:20;12.30;99.90
44229;DHT22;29904;51.058;5.378;2024-02-16T01:31:46;12.30;99.90
44229;DHT22;29904;51.058;5.378;2024-02-16T01:34:11;12.30;99.90
44229;DHT22;29904;51.058;5.378;2024-02-16T01:36:37;12.20;99.90
44229;DHT22;29904;51.058;5.378;2024-02-16T01:39:03;12.30;99.90
44229;DHT22;29904;51.058;5.378;2024-02-16T01:41:28;12.30;99.90
44229;DHT22;29904;51.058;5.378;2024-02-16T01:43:54;12.30;99.90
44229;DHT22;29904;51.058;5.378;2024-02-16T01:46:20;12.30;99.90
44229;DHT22;29904;51.058;5.378;2024-02-16T01:48:46;12.30;99.90
44229;DHT22;29904;51.058;5.378;2024-02-16T01:51:11;12.40;99.90
44229;DHT22;29904;51.058;5.378;2024-02-16T01:53:37;12.40;99.90
44229;DHT22;29904;51.058;5.378;2024-02-16T01:56:03;12.40;99.90
44229;DHT22;29904;51.058;5.378;2024-02-16T01:58:30;12.40;99.90
44229;DHT22;29904;51.058;5.378;2024-02-16T02:00:55;12.40;99.90
44229;DHT22;29904;51.058;5.378;2024-02-16T02:03:21;12.40;99.90
44229;DHT22;29904;51.058;5.378;2024-02-16T02:05:48;12.40;99.90
44229;DHT22;29904;51.058;5.378;2024-02-16T02:08:14;12.40;99.90
44229;DHT22;29904;51.058;5.378;2024-02-16T02:10:40;12.40;99.90
44229;DHT22;29904;51.058;5.378;2024-02-16T02:13:05;12.50;99.90
44229;DHT22;29904;51.058;5.378;2024-02-16T02:15:31;12.50;99.90
44229;DHT22;29904;51.058;5.378;2024-02-16T02:17:56;12.60;99.90
44229;DHT22;29904;51.058;5.378;2024-02-16T02:20:24;12.50;99.90
44229;DHT22;29904;51.058;5.378;2024-02-16T02:22:50;12.50;99.90
44229;DHT22;29904;51.058;5.378;2024-02-16T02:25:15;12.50;99.90
44229;DHT22;29904;51.058;5.378;2024-02-16T02:27:41;12.50;99.90
44229;DHT22;29904;51.058;5.378;2024-02-16T02:30:07;12.50;99.90
44229;DHT22;29904;51.058;5.378;2024-02-16T02:32:33;12.50;99.90
44229;DHT22;29904;51.058;5.378;2024-02-16T02:34:59;12.50;99.90
44229;DHT22;29904;51.058;5.378;2024-02-16T02:37:24;12.40;99.90
44229;DHT22;29904;51.058;5.378;2024-02-16T02:39:50;12.40;99.90
44229;DHT22;29904;51.058;5.378;2024-02-16T02:42:16;12.40;99.90
44229;DHT22;29904;51.058;5.378;2024-02-16T02:44:41;12.40;99.90
44229;DHT22;29904;51.058;5.378;2024-02-16T02:47:14;12.30;99.90
44229;DHT22;29904;51.058;5.378;2024-02-16T02:49:40;12.30;99.90
44229;DHT22;29904;51.058;5.378;2024-02-16T02:52:05;12.30;99.90
44229;DHT22;29904;51.058;5.378;2024-02-16T02:54:31;12.30;99.90
44229;DHT22;29904;51.058;5.378;2024-02-16T02:56:57;12.30;99.90
44229;DHT22;29904;51.058;5.378;2024-02-16T02:59:23;12.30;99.90
44229;DHT22;29904;51.058;5.378;2024-02-16T03:01:48;12.30;99.90
44229;DHT22;29904;51.058;5.378;2024-02-16T03:04:14;12.20;99.90
44229;DHT22;29904;51.058;5.378;2024-02-16T03:06:39;12.20;99.90
44229;DHT22;29904;51.058;5.378;2024-02-16T03:09:05;12.20;99.90
44229;DHT22;29904;51.058;5.378;2024-02-16T03:11:31;12.30;99.90
44229;DHT22;29904;51.058;5.378;2024-02-16T03:13:57;12.30;99.90
44229;DHT22;29904;51.058;5.378;2024-02-16T03:16:23;12.40;99.90
44229;DHT22;29904;51.058;5.378;2024-02-16T03:18:48;12.40;99.90
44229;DHT22;29904;51.058;5.378;2024-02-16T03:21:14;12.40;99.90
44229;DHT22;29904;51.058;5.378;2024-02-16T03:23:43;12.50;99.90
44229;DHT22;29904;51.058;5.378;2024-02-16T03:26:18;12.50;99.90
44229;DHT22;29904;51.058;5.378;2024-02-16T03:28:44;12.50;99.90
44229;DHT22;29904;51.058;5.378;2024-02-16T03:31:22;12.60;99.90
44229;DHT22;29904;51.058;5.378;2024-02-16T03:33:48;12.60;99.90
44229;DHT22;29904;51.058;5.378;2024-02-16T03:36:14;12.60;99.90
44229;DHT22;29904;51.058;5.378;2024-02-16T03:38:43;12.60;99.90
44229;DHT22;29904;51.058;5.378;2024-02-16T03:41:17;12.60;99.90
44229;DHT22;29904;51.058;5.378;2024-02-16T03:43:42;12.70;99.90
44229;DHT22;29904;51.058;5.378;2024-02-16T03:46:08;12.70;99.90
44229;DHT22;29904;51.058;5.378;2024-02-16T03:48:34;12.70;99.90
44229;DHT22;29904;51.058;5.378;2024-02-16T03:50:59;12.70;99.90
44229;DHT22;29904;51.058;5.378;2024-02-16T03:53:25;12.70;99.90
44229;DHT22;29904;51.058;5.378;2024-02-16T03:55:51;12.70;99.90
44229;DHT22;29904;51.058;5.378;2024-02-16T03:58:16;12.70;99.90
44229;DHT22;29904;51.058;5.378;2024-02-16T04:00:42;12.80;99.90
44229;DHT22;29904;51.058;5.378;2024-02-16T04:03:08;12.70;99.90
44229;DHT22;29904;51.058;5.378;2024-02-16T04:05:35;12.80;99.90
44229;DHT22;29904;51.058;5.378;2024-02-16T04:08:00;12.80;99.90
44229;DHT22;29904;51.058;5.378;2024-02-16T04:10:29;12.90;99.90
44229;DHT22;29904;51.058;5.378;2024-02-16T04:12:54;12.90;99.90
44229;DHT22;29904;51.058;5.378;2024-02-16T04:15:20;12.90;99.90
44229;DHT22;29904;51.058;5.378;2024-02-16T04:17:45;12.90;99.90
44229;DHT22;29904;51.058;5.378;2024-02-16T04:20:11;12.90;99.90
44229;DHT22;29904;51.058;5.378;2024-02-16T04:22:37;12.90;99.90
44229;DHT22;29904;51.058;5.378;2024-02-16T04:25:03;12.90;99.90
44229;DHT22;29904;51.058;5.378;2024-02-16T04:27:29;12.90;99.90
44229;DHT22;29904;51.058;5.378;2024-02-16T04:29:55;12.90;99.90
44229;DHT22;29904;51.058;5.378;2024-02-16T04:32:20;12.90;99.90
44229;DHT22;29904;51.058;5.378;2024-02-16T04:34:46;12.90;99.90
44229;DHT22;29904;51.058;5.378;2024-02-16T04:37:15;12.90;99.90
44229;DHT22;29904;51.058;5.378;2024-02-16T04:39:40;13.00;99.90
44229;DHT22;29904;51.058;5.378;2024-02-16T04:42:06;13.00;99.90
44229;DHT22;29904;51.058;5.378;2024-02-16T04:44:31;13.00;99.90
44229;DHT22;29904;51.058;5.378;2024-02-16T04:46:57;13.00;99.90
44229;DHT22;29904;51.058;5.378;2024-02-16T04:49:22;13.00;99.90
44229;DHT22;29904;51.058;5.378;2024-02-16T04:51:49;13.00;99.90
44229;DHT22;29904;51.058;5.378;2024-02-16T04:54:14;13.00;99.90
44229;DHT22;29904;51.058;5.378;2024-02-16T04:56:40;13.00;99.90
44229;DHT22;29904;51.058;5.378;2024-02-16T04:59:05;13.10;99.90
44229;DHT22;29904;51.058;5.378;2024-02-16T05:01:31;13.10;99.90
44229;DHT22;29904;51.058;5.378;2024-02-16T05:03:59;13.00;99.90
44229;DHT22;29904;51.058;5.378;2024-02-16T05:06:27;13.00;99.90
44229;DHT22;29904;51.058;5.378;2024-02-16T05:08:52;13.00;99.90
44229;DHT22;29904;51.058;5.378;2024-02-16T05:11:19;13.00;99.90
44229;DHT22;29904;51.058;5.378;2024-02-16T05:13:44;13.00;99.90
44229;DHT22;29904;51.058;5.378;2024-02-16T05:16:11;13.10;99.90
44229;DHT22;29904;51.058;5.378;2024-02-16T05:18:37;13.10;99.90
44229;DHT22;29904;51.058;5.378;2024-02-16T05:21:02;13.10;99.90
44229;DHT22;29904;51.058;5.378;2024-02-16T05:23:28;13.10;99.90
44229;DHT22;29904;51.058;5.378;2024-02-16T05:25:53;13.10;99.90
44229;DHT22;29904;51.058;5.378;2024-02-16T05:28:19;13.10;99.90
44229;DHT22;29904;51.058;5.378;2024-02-16T05:30:45;13.10;99.90
44229;DHT22;29904;51.058;5.378;2024-02-16T05:33:11;13.10;99.90
44229;DHT22;29904;51.058;5.378;2024-02-16T05:35:36;13.10;99.90
44229;DHT22;29904;51.058;5.378;2024-02-16T05:38:05;13.10;99.90
44229;DHT22;29904;51.058;5.378;2024-02-16T05:40:35;13.10;99.90
44229;DHT22;29904;51.058;5.378;2024-02-16T05:43:19;13.10;99.90
44229;DHT22;29904;51.058;5.378;2024-02-16T05:45:45;13.10;99.90
44229;DHT22;29904;51.058;5.378;2024-02-16T05:48:11;13.10;99.90
44229;DHT22;29904;51.058;5.378;2024-02-16T05:50:37;13.10;99.90
44229;DHT22;29904;51.058;5.378;2024-02-16T05:53:03;13.10;99.90
44229;DHT22;29904;51.058;5.378;2024-02-16T05:55:28;13.10;99.90
44229;DHT22;29904;51.058;5.378;2024-02-16T05:57:54;13.00;99.90
44229;DHT22;29904;51.058;5.378;2024-02-16T06:00:20;13.00;99.90
44229;DHT22;29904;51.058;5.378;2024-02-16T06:02:46;12.90;99.90
44229;DHT22;29904;51.058;5.378;2024-02-16T06:05:12;12.90;99.90
44229;DHT22;29904;51.058;5.378;2024-02-16T06:07:38;12.90;99.90
44229;DHT22;29904;51.058;5.378;2024-02-16T06:10:04;12.90;99.90
44229;DHT22;29904;51.058;5.378;2024-02-16T06:12:33;12.80;99.90
44229;DHT22;29904;51.058;5.378;2024-02-16T06:14:58;12.80;99.90
44229;DHT22;29904;51.058;5.378;2024-02-16T06:17:24;12.70;99.90
44229;DHT22;29904;51.058;5.378;2024-02-16T06:19:50;12.70;99.90
44229;DHT22;29904;51.058;5.378;2024-02-16T06:22:16;12.70;99.90
44229;DHT22;29904;51.058;5.378;2024-02-16T06:24:41;12.80;99.90
44229;DHT22;29904;51.058;5.378;2024-02-16T06:27:07;12.80;99.90
44229;DHT22;29904;51.058;5.378;2024-02-16T06:29:34;12.80;99.90
44229;DHT22;29904;51.058;5.378;2024-02-16T06:32:00;12.80;99.90
44229;DHT22;29904;51.058;5.378;2024-02-16T06:34:27;12.90;99.90
44229;DHT22;29904;51.058;5.378;2024-02-16T06:36:53;12.80;99.90
44229;DHT22;29904;51.058;5.378;2024-02-16T06:39:18;12.80;99.90
44229;DHT22;29904;51.058;5.378;2024-02-16T06:41:45;12.90;99.90
44229;DHT22;29904;51.058;5.378;2024-02-16T06:44:11;12.90;99.90
44229;DHT22;29904;51.058;5.378;2024-02-16T06:46:37;12.90;99.90
44229;DHT22;29904;51.058;5.378;2024-02-16T06:49:02;12.90;99.90
44229;DHT22;29904;51.058;5.378;2024-02-16T06:51:28;12.90;99.90
44229;DHT22;29904;51.058;5.378;2024-02-16T06:53:54;12.90;99.90
44229;DHT22;29904;51.058;5.378;2024-02-16T06:56:20;12.90;99.90
44229;DHT22;29904;51.058;5.378;2024-02-16T06:58:46;13.00;99.90
44229;DHT22;29904;51.058;5.378;2024-02-16T07:01:15;12.90;99.90
44229;DHT22;29904;51.058;5.378;2024-02-16T07:03:41;13.00;99.90
44229;DHT22;29904;51.058;5.378;2024-02-16T07:06:06;13.00;99.90
44229;DHT22;29904;51.058;5.378;2024-02-16T07:08:41;13.00;99.90
44229;DHT22;29904;51.058;5.378;2024-02-16T07:11:07;13.00;99.90
44229;DHT22;29904;51.058;5.378;2024-02-16T07:13:33;13.00;99.90
44229;DHT22;29904;51.058;5.378;2024-02-16T07:15:58;13.00;99.90
44229;DHT22;29904;51.058;5.378;2024-02-16T07:18:24;13.00;99.90
44229;DHT22;29904;51.058;5.378;2024-02-16T07:20:50;13.00;99.90
44229;DHT22;29904;51.058;5.378;2024-02-16T07:23:15;13.00;99.90
44229;DHT22;29904;51.058;5.378;2024-02-16T07:25:41;13.10;99.90
44229;DHT22;29904;51.058;5.378;2024-02-16T07:28:07;13.00;99.90
44229;DHT22;29904;51.058;5.378;2024-02-16T07:30:33;13.10;99.90
44229;DHT22;29904;51.058;5.378;2024-02-16T07:32:59;13.10;99.90
44229;DHT22;29904;51.058;5.378;2024-02-16T07:35:24;13.10;99.90
44229;DHT22;29904;51.058;5.378;2024-02-16T07:37:50;13.10;99.90
44229;DHT22;29904;51.058;5.378;2024-02-16T07:40:22;13.20;99.90
44229;DHT22;29904;51.058;5.378;2024-02-16T07:42:48;13.20;99.90
44229;DHT22;29904;51.058;5.378;2024-02-16T07:45:13;13.20;99.90
44229;DHT22;29904;51.058;5.378;2024-02-16T07:47:42;13.20;99.90
44229;DHT22;29904;51.058;5.378;2024-02-16T07:50:08;13.20;99.90
44229;DHT22;29904;51.058;5.378;2024-02-16T07:52:33;13.30;99.90
44229;DHT22;29904;51.058;5.378;2024-02-16T07:54:59;13.30;99.90
44229;DHT22;29904;51.058;5.378;2024-02-16T07:57:24;13.30;99.90
44229;DHT22;29904;51.058;5.378;2024-02-16T07:59:50;13.40;99.90
44229;DHT22;29904;51.058;5.378;2024-02-16T08:02:16;13.40;99.90
44229;DHT22;29904;51.058;5.378;2024-02-16T08:04:46;13.40;99.90
44229;DHT22;29904;51.058;5.378;2024-02-16T08:07:12;13.40;99.90
44229;DHT22;29904;51.058;5.378;2024-02-16T08:09:37;13.50;99.90
44229;DHT22;29904;51.058;5.378;2024-02-16T08:12:05;13.50;99.90
44229;DHT22;29904;51.058;5.378;2024-02-16T08:14:32;13.50;99.90
44229;DHT22;29904;51.058;5.378;2024-02-16T08:16:58;13.50;99.90
44229;DHT22;29904;51.058;5.378;2024-02-16T08:19:26;13.50;99.90
44229;DHT22;29904;51.058;5.378;2024-02-16T08:21:56;13.60;99.90
44229;DHT22;29904;51.058;5.378;2024-02-16T08:24:22;13.60;99.90
44229;DHT22;29904;51.058;5.378;2024-02-16T08:26:47;13.60;99.90
44229;DHT22;29904;51.058;5.378;2024-02-16T08:29:13;13.70;99.90
44229;DHT22;29904;51.058;5.378;2024-02-16T08:31:38;13.70;99.90
44229;DHT22;29904;51.058;5.378;2024-02-16T08:34:04;13.70;99.90
44229;DHT22;29904;51.058;5.378;2024-02-16T08:36:32;13.80;99.90
44229;DHT22;29904;51.058;5.378;2024-02-16T08:38:59;13.80;99.90
44229;DHT22;29904;51.058;5.378;2024-02-16T08:41:25;13.80;99.90
44229;DHT22;29904;51.058;5.378;2024-02-16T08:43:50;13.90;99.90
44229;DHT22;29904;51.058;5.378;2024-02-16T08:46:16;13.80;99.90
44229;DHT22;29904;51.058;5.378;2024-02-16T08:48:43;13.90;99.90
44229;DHT22;29904;51.058;5.378;2024-02-16T08:51:09;13.90;99.90
44229;DHT22;29904;51.058;5.378;2024-02-16T08:53:36;13.90;99.90
44229;DHT22;29904;51.058;5.378;2024-02-16T08:56:01;13.90;99.90
44229;DHT22;29904;51.058;5.378;2024-02-16T08:58:27;13.90;99.90
44229;DHT22;29904;51.058;5.378;2024-02-16T09:00:52;14.00;99.90
44229;DHT22;29904;51.058;5.378;2024-02-16T09:03:18;14.00;99.90
44229;DHT22;29904;51.058;5.378;2024-02-16T09:05:43;14.00;99.90
44229;DHT22;29904;51.058;5.378;2024-02-16T09:08:10;14.00;99.90
44229;DHT22;29904;51.058;5.378;2024-02-16T09:10:36;14.00;99.90
44229;DHT22;29904;51.058;5.378;2024-02-16T09:13:01;14.00;99.90
44229;DHT22;29904;51.058;5.378;2024-02-16T09:15:27;14.00;99.90
44229;DHT22;29904;51.058;5.378;2024-02-16T09:17:52;14.00;99.90
44229;DHT22;29904;51.058;5.378;2024-02-16T09:20:18;13.90;99.90
44229;DHT22;29904;51.058;5.378;2024-02-16T09:22:48;13.90;99.90
44229;DHT22;29904;51.058;5.378;2024-02-16T09:25:14;14.00;99.90
44229;DHT22;29904;51.058;5.378;2024-02-16T09:27:40;14.00;99.90
44229;DHT22;29904;51.058;5.378;2024-02-16T09:30:07;14.00;99.90
44229;DHT22;29904;51.058;5.378;2024-02-16T09:32:32;14.10;99.90
44229;DHT22;29904;51.058;5.378;2024-02-16T09:34:58;14.20;99.90
44229;DHT22;29904;51.058;5.378;2024-02-16T09:37:24;14.20;99.90
44229;DHT22;29904;51.058;5.378;2024-02-16T09:39:49;14.30;99.90
44229;DHT22;29904;51.058;5.378;2024-02-16T09:42:15;14.30;99.90
44229;DHT22;29904;51.058;5.378;2024-02-16T09:44:41;14.30;99.90
44229;DHT22;29904;51.058;5.378;2024-02-16T09:47:08;14.30;99.90
44229;DHT22;29904;51.058;5.378;2024-02-16T09:49:37;14.30;99.90
44229;DHT22;29904;51.058;5.378;2024-02-16T09:52:03;14.30;99.90
44229;DHT22;29904;51.058;5.378;2024-02-16T09:54:32;14.30;99.90
44229;DHT22;29904;51.058;5.378;2024-02-16T09:56:59;14.30;99.90
44229;DHT22;29904;51.058;5.378;2024-02-16T09:59:25;14.30;99.90
44229;DHT22;29904;51.058;5.378;2024-02-16T10:01:59;14.30;99.90
44229;DHT22;29904;51.058;5.378;2024-02-16T10:04:24;14.30;99.90
44229;DHT22;29904;51.058;5.378;2024-02-16T10:06:50;14.30;99.90
44229;DHT22;29904;51.058;5.378;2024-02-16T10:09:25;14.30;99.90
44229;DHT22;29904;51.058;5.378;2024-02-16T10:11:51;14.30;99.90
44229;DHT22;29904;51.058;5.378;2024-02-16T10:14:17;14.30;99.90
44229;DHT22;29904;51.058;5.378;2024-02-16T10:16:45;14.30;99.90
44229;DHT22;29904;51.058;5.378;2024-02-16T10:19:11;14.30;99.90
44229;DHT22;29904;51.058;5.378;2024-02-16T10:21:37;14.30;99.90
44229;DHT22;29904;51.058;5.378;2024-02-16T10:24:05;14.30;99.90
44229;DHT22;29904;51.058;5.378;2024-02-16T10:26:36;14.30;99.90
44229;DHT22;29904;51.058;5.378;2024-02-16T10:29:05;14.30;99.90
44229;DHT22;29904;51.058;5.378;2024-02-16T10:31:31;14.30;99.90
44229;DHT22;29904;51.058;5.378;2024-02-16T10:33:59;14.40;99.90
44229;DHT22;29904;51.058;5.378;2024-02-16T10:36:25;14.40;99.90
44229;DHT22;29904;51.058;5.378;2024-02-16T10:38:54;14.40;99.90
44229;DHT22;29904;51.058;5.378;2024-02-16T10:41:20;14.30;99.90
44229;DHT22;29904;51.058;5.378;2024-02-16T10:43:47;14.30;99.90
44229;DHT22;29904;51.058;5.378;2024-02-16T10:46:14;14.30;99.90
44229;DHT22;29904;51.058;5.378;2024-02-16T10:48:41;14.30;99.90
44229;DHT22;29904;51.058;5.378;2024-02-16T10:51:07;14.30;99.90
44229;DHT22;29904;51.058;5.378;2024-02-16T10:53:34;14.30;99.90
44229;DHT22;29904;51.058;5.378;2024-02-16T10:55:59;14.20;99.90
44229;DHT22;29904;51.058;5.378;2024-02-16T10:58:26;14.20;99.90
44229;DHT22;29904;51.058;5.378;2024-02-16T11:00:52;14.20;99.90
44229;DHT22;29904;51.058;5.378;2024-02-16T11:03:21;14.30;99.90
44229;DHT22;29904;51.058;5.378;2024-02-16T11:05:48;14.20;99.90
44229;DHT22;29904;51.058;5.378;2024-02-16T11:08:16;14.30;99.90
44229;DHT22;29904;51.058;5.378;2024-02-16T11:10:57;14.30;99.90
44229;DHT22;29904;51.058;5.378;2024-02-16T11:13:24;14.30;99.90
44229;DHT22;29904;51.058;5.378;2024-02-16T11:15:56;14.30;99.90
44229;DHT22;29904;51.058;5.378;2024-02-16T11:18:22;14.30;99.90
44229;DHT22;29904;51.058;5.378;2024-02-16T11:20:47;14.30;99.90
44229;DHT22;29904;51.058;5.378;2024-02-16T11:23:14;14.30;99.90
44229;DHT22;29904;51.058;5.378;2024-02-16T11:25:49;14.20;99.90
44229;DHT22;29904;51.058;5.378;2024-02-16T11:28:15;14.20;99.90
44229;DHT22;29904;51.058;5.378;2024-02-16T11:30:40;14.20;99.90
44229;DHT22;29904;51.058;5.378;2024-02-16T11:33:10;14.20;99.90
44229;DHT22;29904;51.058;5.378;2024-02-16T11:35:35;14.20;99.90
44229;DHT22;29904;51.058;5.378;2024-02-16T11:38:01;14.20;99.90
44229;DHT22;29904;51.058;5.378;2024-02-16T11:40:27;14.20;99.90
44229;DHT22;29904;51.058;5.378;2024-02-16T11:43:01;14.20;99.90
44229;DHT22;29904;51.058;5.378;2024-02-16T11:45:27;14.20;99.90
44229;DHT22;29904;51.058;5.378;2024-02-16T11:48:03;14.20;99.90
44229;DHT22;29904;51.058;5.378;2024-02-16T11:50:29;14.30;99.90
44229;DHT22;29904;51.058;5.378;2024-02-16T11:52:55;14.30;99.90
44229;DHT22;29904;51.058;5.378;2024-02-16T11:55:20;14.30;99.90
44229;DHT22;29904;51.058;5.378;2024-02-16T11:57:46;14.30;99.90
44229;DHT22;29904;51.058;5.378;2024-02-16T12:00:16;14.30;99.90
44229;DHT22;29904;51.058;5.378;2024-02-16T12:02:41;14.30;99.90
44229;DHT22;29904;51.058;5.378;2024-02-16T12:05:07;14.40;99.90
44229;DHT22;29904;51.058;5.378;2024-02-16T12:07:33;14.40;99.90
44229;DHT22;29904;51.058;5.378;2024-02-16T12:10:00;14.40;99.90
44229;DHT22;29904;51.058;5.378;2024-02-16T12:12:26;14.40;99.90
44229;DHT22;29904;51.058;5.378;2024-02-16T12:14:55;14.40;99.90
44229;DHT22;29904;51.058;5.378;2024-02-16T12:17:20;14.30;99.90
44229;DHT22;29904;51.058;5.378;2024-02-16T12:19:46;14.30;99.90
44229;DHT22;29904;51.058;5.378;2024-02-16T12:22:18;14.30;99.90
44229;DHT22;29904;51.058;5.378;2024-02-16T12:24:47;14.30;99.90
44229;DHT22;29904;51.058;5.378;2024-02-16T12:27:13;14.30;99.90
44229;DHT22;29904;51.058;5.378;2024-02-16T12:29:40;14.30;99.90
44229;DHT22;29904;51.058;5.378;2024-02-16T12:32:05;14.20;99.90
44229;DHT22;29904;51.058;5.378;2024-02-16T12:34:31;14.20;99.90
44229;DHT22;29904;51.058;5.378;2024-02-16T12:36:57;14.20;99.90
44229;DHT22;29904;51.058;5.378;2024-02-16T12:39:22;14.10;99.90
44229;DHT22;29904;51.058;5.378;2024-02-16T12:41:48;14.00;99.90
44229;DHT22;29904;51.058;5.378;2024-02-16T12:44:14;14.00;99.90
44229;DHT22;29904;51.058;5.378;2024-02-16T12:46:40;14.00;99.90
44229;DHT22;29904;51.058;5.378;2024-02-16T12:49:06;13.90;99.90
44229;DHT22;29904;51.058;5.378;2024-02-16T12:51:32;13.90;99.90
44229;DHT22;29904;51.058;5.378;2024-02-16T12:53:57;13.90;99.90
44229;DHT22;29904;51.058;5.378;2024-02-16T12:56:25;13.90;99.90
44229;DHT22;29904;51.058;5.378;2024-02-16T12:58:51;13.90;99.90
44229;DHT22;29904;51.058;5.378;2024-02-16T13:01:16;13.90;99.90
44229;DHT22;29904;51.058;5.378;2024-02-16T13:03:47;13.80;99.90
44229;DHT22;29904;51.058;5.378;2024-02-16T13:06:12;13.80;99.90
44229;DHT22;29904;51.058;5.378;2024-02-16T13:08:38;13.70;99.90
44229;DHT22;29904;51.058;5.378;2024-02-16T13:11:04;13.70;99.90
44229;DHT22;29904;51.058;5.378;2024-02-16T13:13:30;13.70;99.90
44229;DHT22;29904;51.058;5.378;2024-02-16T13:15:57;13.60;99.90
44229;DHT22;29904;51.058;5.378;2024-02-16T13:18:24;13.50;99.90
44229;DHT22;29904;51.058;5.378;2024-02-16T13:20:49;13.50;99.90
44229;DHT22;29904;51.058;5.378;2024-02-16T13:23:15;13.50;99.90
44229;DHT22;29904;51.058;5.378;2024-02-16T13:25:40;13.40;99.90
44229;DHT22;29904;51.058;5.378;2024-02-16T13:28:06;13.40;99.90
44229;DHT22;29904;51.058;5.378;2024-02-16T13:30:31;13.30;99.90
44229;DHT22;29904;51.058;5.378;2024-02-16T13:32:57;13.30;99.90
44229;DHT22;29904;51.058;5.378;2024-02-16T13:35:23;13.30;99.90
44229;DHT22;29904;51.058;5.378;2024-02-16T13:37:49;13.30;99.90
44229;DHT22;29904;51.058;5.378;2024-02-16T13:40:14;13.20;99.90
44229;DHT22;29904;51.058;5.378;2024-02-16T13:42:40;13.20;99.90
44229;DHT22;29904;51.058;5.378;2024-02-16T13:45:07;13.10;99.90
44229;DHT22;29904;51.058;5.378;2024-02-16T13:47:33;13.10;99.90
44229;DHT22;29904;51.058;5.378;2024-02-16T13:49:58;13.10;99.90
44229;DHT22;29904;51.058;5.378;2024-02-16T13:52:25;13.10;99.90
44229;DHT22;29904;51.058;5.378;2024-02-16T13:54:51;13.00;99.90
44229;DHT22;29904;51.058;5.378;2024-02-16T13:57:16;13.00;99.90
44229;DHT22;29904;51.058;5.378;2024-02-16T13:59:42;12.90;99.90
44229;DHT22;29904;51.058;5.378;2024-02-16T14:02:08;12.90;99.90
44229;DHT22;29904;51.058;5.378;2024-02-16T14:04:34;12.80;99.90
44229;DHT22;29904;51.058;5.378;2024-02-16T14:06:59;12.80;99.90
44229;DHT22;29904;51.058;5.378;2024-02-16T14:09:25;12.80;99.90
44229;DHT22;29904;51.058;5.378;2024-02-16T14:11:52;12.80;99.90
44229;DHT22;29904;51.058;5.378;2024-02-16T14:14:19;12.80;99.90
44229;DHT22;29904;51.058;5.378;2024-02-16T14:16:44;12.80;99.90
44229;DHT22;29904;51.058;5.378;2024-02-16T14:19:10;12.80;99.90
44229;DHT22;29904;51.058;5.378;2024-02-16T14:21:36;12.80;99.90
44229;DHT22;29904;51.058;5.378;2024-02-16T14:24:01;12.70;99.90
44229;DHT22;29904;51.058;5.378;2024-02-16T14:26:27;12.70;99.90
44229;DHT22;29904;51.058;5.378;2024-02-16T14:28:52;12.70;99.90
44229;DHT22;29904;51.058;5.378;2024-02-16T14:31:18;12.60;99.90
44229;DHT22;29904;51.058;5.378;2024-02-16T14:33:46;12.70;99.90
44229;DHT22;29904;51.058;5.378;2024-02-16T14:36:11;12.70;99.90
44229;DHT22;29904;51.058;5.378;2024-02-16T14:38:37;12.70;99.90
44229;DHT22;29904;51.058;5.378;2024-02-16T14:41:03;12.70;99.90
44229;DHT22;29904;51.058;5.378;2024-02-16T14:43:31;12.70;99.90
44229;DHT22;29904;51.058;5.378;2024-02-16T14:45:57;12.70;99.90
44229;DHT22;29904;51.058;5.378;2024-02-16T14:48:23;12.70;99.90
44229;DHT22;29904;51.058;5.378;2024-02-16T14:50:51;12.70;99.90
44229;DHT22;29904;51.058;5.378;2024-02-16T14:53:21;12.80;99.90
44229;DHT22;29904;51.058;5.378;2024-02-16T14:55:47;12.80;99.90
44229;DHT22;29904;51.058;5.378;2024-02-16T14:58:12;12.80;99.90
44229;DHT22;29904;51.058;5.378;2024-02-16T15:00:38;12.70;99.90
44229;DHT22;29904;51.058;5.378;2024-02-16T15:03:04;12.80;99.90
44229;DHT22;29904;51.058;5.378;2024-02-16T15:05:30;12.90;99.90
44229;DHT22;29904;51.058;5.378;2024-02-16T15:07:55;13.00;99.90
44229;DHT22;29904;51.058;5.378;2024-02-16T15:10:21;13.00;99.90
44229;DHT22;29904;51.058;5.378;2024-02-16T15:12:47;12.90;99.90
44229;DHT22;29904;51.058;5.378;2024-02-16T15:15:12;12.90;99.90
44229;DHT22;29904;51.058;5.378;2024-02-16T15:17:38;12.90;99.90
44229;DHT22;29904;51.058;5.378;2024-02-16T15:20:05;12.80;99.90
44229;DHT22;29904;51.058;5.378;2024-02-16T15:22:32;12.80;99.90
44229;DHT22;29904;51.058;5.378;2024-02-16T15:24:57;12.80;99.90